sensor_id;sensor_type;location;lat;lon;timestamp;temperature;humidity
2657;DHT22;1338;48.176;11.792;2023-06-04T00:01:27;15.00;99.90
2657;DHT22;1338;48.176;11.792;2023-06-04T00:03:56;15.10;99.90
2657;DHT22;1338;48.176;11.792;2023-06-04T00:06:24;15.10;99.90
2657;DHT22;1338;48.176;11.792;2023-06-04T00:08:53;15.00;99.90
2657;DHT22;1338;48.176;11.792;2023-06-04T00:11:22;15.10;98.30
2657;DHT22;1338;48.176;11.792;2023-06-04T00:13:50;15.00;99.90
2657;DHT22;1338;48.176;11.792;2023-06-04T00:16:18;14.70;97.00
2657;DHT22;1338;48.176;11.792;2023-06-04T00:18:46;14.80;99.90
2657;DHT22;1338;48.176;11.792;2023-06-04T00:21:14;14.50;96.30
2657;DHT22;1338;48.176;11.792;2023-06-04T00:23:42;14.50;98.10
2657;DHT22;1338;48.176;11.792;2023-06-04T00:26:12;14.20;97.70
2657;DHT22;1338;48.176;11.792;2023-06-04T00:28:45;14.20;95.70
2657;DHT22;1338;48.176;11.792;2023-06-04T00:31:13;14.20;95.60
2657;DHT22;1338;48.176;11.792;2023-06-04T00:33:42;14.30;96.70
2657;DHT22;1338;48.176;11.792;2023-06-04T00:36:11;14.60;98.00
2657;DHT22;1338;48.176;11.792;2023-06-04T00:38:39;14.40;80.60
2657;DHT22;1338;48.176;11.792;2023-06-04T00:41:07;14.30;93.60
2657;DHT22;1338;48.176;11.792;2023-06-04T00:43:37;14.00;79.30
2657;DHT22;1338;48.176;11.792;2023-06-04T00:46:06;14.00;96.80
2657;DHT22;1338;48.176;11.792;2023-06-04T00:48:35;14.10;95.90
2657;DHT22;1338;48.176;11.792;2023-06-04T00:51:04;14.20;93.80
2657;DHT22;1338;48.176;11.792;2023-06-04T00:53:32;14.00;89.90
2657;DHT22;1338;48.176;11.792;2023-06-04T00:56:00;14.10;94.60
2657;DHT22;1338;48.176;11.792;2023-06-04T00:58:33;14.00;96.50
2657;DHT22;1338;48.176;11.792;2023-06-04T01:01:10;14.30;94.00
2657;DHT22;1338;48.176;11.792;2023-06-04T01:03:43;14.30;96.70
2657;DHT22;1338;48.176;11.792;2023-06-04T01:06:16;13.90;90.40
2657;DHT22;1338;48.176;11.792;2023-06-04T01:08:49;13.80;90.50
2657;DHT22;1338;48.176;11.792;2023-06-04T01:11:31;14.10;99.90
2657;DHT22;1338;48.176;11.792;2023-06-04T01:13:59;14.30;93.60
2657;DHT22;1338;48.176;11.792;2023-06-04T01:16:32;14.30;97.90
2657;DHT22;1338;48.176;11.792;2023-06-04T01:19:02;14.30;89.30
2657;DHT22;1338;48.176;11.792;2023-06-04T01:21:36;14.50;92.60
2657;DHT22;1338;48.176;11.792;2023-06-04T01:24:05;14.40;98.00
2657;DHT22;1338;48.176;11.792;2023-06-04T01:26:35;14.60;98.00
2657;DHT22;1338;48.176;11.792;2023-06-04T01:29:04;14.30;90.40
2657;DHT22;1338;48.176;11.792;2023-06-04T01:31:34;13.50;84.70
2657;DHT22;1338;48.176;11.792;2023-06-04T01:34:02;13.60;99.90
2657;DHT22;1338;48.176;11.792;2023-06-04T01:36:30;14.20;99.90
2657;DHT22;1338;48.176;11.792;2023-06-04T01:38:59;13.90;99.90
2657;DHT22;1338;48.176;11.792;2023-06-04T01:41:28;13.60;99.90
2657;DHT22;1338;48.176;11.792;2023-06-04T01:43:56;13.50;99.90
2657;DHT22;1338;48.176;11.792;2023-06-04T01:46:24;12.40;99.90
2657;DHT22;1338;48.176;11.792;2023-06-04T01:48:53;12.50;99.90
2657;DHT22;1338;48.176;11.792;2023-06-04T01:51:22;13.30;99.90
2657;DHT22;1338;48.176;11.792;2023-06-04T01:53:50;12.30;99.90
2657;DHT22;1338;48.176;11.792;2023-06-04T01:56:18;13.20;99.90
2657;DHT22;1338;48.176;11.792;2023-06-04T01:58:47;12.10;99.90
2657;DHT22;1338;48.176;11.792;2023-06-04T02:01:16;12.70;99.90
2657;DHT22;1338;48.176;11.792;2023-06-04T02:03:44;11.70;99.90
2657;DHT22;1338;48.176;11.792;2023-06-04T02:06:13;12.20;99.90
2657;DHT22;1338;48.176;11.792;2023-06-04T02:08:42;11.90;99.90
2657;DHT22;1338;48.176;11.792;2023-06-04T02:11:10;11.50;99.90
2657;DHT22;1338;48.176;11.792;2023-06-04T02:13:38;11.80;99.90
2657;DHT22;1338;48.176;11.792;2023-06-04T02:16:06;11.30;99.90
2657;DHT22;1338;48.176;11.792;2023-06-04T02:18:35;11.50;99.90
2657;DHT22;1338;48.176;11.792;2023-06-04T02:21:03;11.30;99.90
2657;DHT22;1338;48.176;11.792;2023-06-04T02:23:33;12.60;99.90
2657;DHT22;1338;48.176;11.792;2023-06-04T02:26:02;12.70;99.90
2657;DHT22;1338;48.176;11.792;2023-06-04T02:28:30;11.90;99.90
2657;DHT22;1338;48.176;11.792;2023-06-04T02:30:58;12.70;99.90
2657;DHT22;1338;48.176;11.792;2023-06-04T02:33:26;13.30;99.90
2657;DHT22;1338;48.176;11.792;2023-06-04T02:35:54;13.70;99.90
2657;DHT22;1338;48.176;11.792;2023-06-04T02:38:23;13.80;99.90
2657;DHT22;1338;48.176;11.792;2023-06-04T02:40:52;13.50;99.90
2657;DHT22;1338;48.176;11.792;2023-06-04T02:43:21;13.60;99.90
2657;DHT22;1338;48.176;11.792;2023-06-04T02:45:49;13.50;99.90
2657;DHT22;1338;48.176;11.792;2023-06-04T02:48:17;13.20;99.90
2657;DHT22;1338;48.176;11.792;2023-06-04T02:50:45;12.90;99.90
2657;DHT22;1338;48.176;11.792;2023-06-04T02:53:14;13.40;99.90
2657;DHT22;1338;48.176;11.792;2023-06-04T02:55:42;13.20;99.90
2657;DHT22;1338;48.176;11.792;2023-06-04T02:58:11;13.30;99.90
2657;DHT22;1338;48.176;11.792;2023-06-04T03:00:40;13.00;99.90
2657;DHT22;1338;48.176;11.792;2023-06-04T03:03:09;13.20;99.90
2657;DHT22;1338;48.176;11.792;2023-06-04T03:05:37;13.00;99.90
2657;DHT22;1338;48.176;11.792;2023-06-04T03:08:06;13.10;99.90
2657;DHT22;1338;48.176;11.792;2023-06-04T03:10:34;13.00;99.90
2657;DHT22;1338;48.176;11.792;2023-06-04T03:13:03;13.40;99.90
2657;DHT22;1338;48.176;11.792;2023-06-04T03:15:33;12.70;99.90
2657;DHT22;1338;48.176;11.792;2023-06-04T03:18:01;11.30;99.90
2657;DHT22;1338;48.176;11.792;2023-06-04T03:20:30;13.10;99.90
2657;DHT22;1338;48.176;11.792;2023-06-04T03:23:03;13.80;99.90
2657;DHT22;1338;48.176;11.792;2023-06-04T03:25:31;13.60;99.90
2657;DHT22;1338;48.176;11.792;2023-06-04T03:27:59;13.30;99.90
2657;DHT22;1338;48.176;11.792;2023-06-04T03:30:28;12.90;99.90
2657;DHT22;1338;48.176;11.792;2023-06-04T03:33:02;13.00;99.90
2657;DHT22;1338;48.176;11.792;2023-06-04T03:35:32;12.20;99.90
2657;DHT22;1338;48.176;11.792;2023-06-04T03:38:01;10.90;99.90
2657;DHT22;1338;48.176;11.792;2023-06-04T03:40:30;10.90;99.90
2657;DHT22;1338;48.176;11.792;2023-06-04T03:42:59;10.90;99.90
2657;DHT22;1338;48.176;11.792;2023-06-04T03:45:30;11.30;99.90
2657;DHT22;1338;48.176;11.792;2023-06-04T03:47:58;12.70;99.90
2657;DHT22;1338;48.176;11.792;2023-06-04T03:50:29;13.20;99.90
2657;DHT22;1338;48.176;11.792;2023-06-04T03:52:58;13.10;99.90
2657;DHT22;1338;48.176;11.792;2023-06-04T03:55:28;13.00;99.90
2657;DHT22;1338;48.176;11.792;2023-06-04T03:57:59;13.40;99.90
2657;DHT22;1338;48.176;11.792;2023-06-04T04:00:28;12.80;99.90
2657;DHT22;1338;48.176;11.792;2023-06-04T04:03:00;12.30;99.90
2657;DHT22;1338;48.176;11.792;2023-06-04T04:05:31;12.00;99.90
2657;DHT22;1338;48.176;11.792;2023-06-04T04:07:59;12.70;99.90
2657;DHT22;1338;48.176;11.792;2023-06-04T04:10:30;12.90;99.90
2657;DHT22;1338;48.176;11.792;2023-06-04T04:12:58;12.20;99.90
2657;DHT22;1338;48.176;11.792;2023-06-04T04:15:30;13.00;99.90
2657;DHT22;1338;48.176;11.792;2023-06-04T04:18:00;13.40;99.90
2657;DHT22;1338;48.176;11.792;2023-06-04T04:20:30;13.30;99.90
2657;DHT22;1338;48.176;11.792;2023-06-04T04:23:03;13.60;99.90
2657;DHT22;1338;48.176;11.792;2023-06-04T04:25:34;13.70;99.90
2657;DHT22;1338;48.176;11.792;2023-06-04T04:28:05;13.00;99.90
2657;DHT22;1338;48.176;11.792;2023-06-04T04:30:35;12.80;99.90
2657;DHT22;1338;48.176;11.792;2023-06-04T04:33:05;12.70;99.90
2657;DHT22;1338;48.176;11.792;2023-06-04T04:35:41;12.90;99.90
2657;DHT22;1338;48.176;11.792;2023-06-04T04:38:14;13.00;99.90
2657;DHT22;1338;48.176;11.792;2023-06-04T04:40:50;13.30;99.90
2657;DHT22;1338;48.176;11.792;2023-06-04T04:43:29;12.50;99.90
2657;DHT22;1338;48.176;11.792;2023-06-04T04:45:59;12.50;99.90
2657;DHT22;1338;48.176;11.792;2023-06-04T04:48:28;12.90;99.90
2657;DHT22;1338;48.176;11.792;2023-06-04T04:50:58;13.30;99.90
2657;DHT22;1338;48.176;11.792;2023-06-04T04:53:27;14.00;99.90
2657;DHT22;1338;48.176;11.792;2023-06-04T04:55:55;14.10;99.90
2657;DHT22;1338;48.176;11.792;2023-06-04T04:58:24;13.80;99.90
2657;DHT22;1338;48.176;11.792;2023-06-04T05:00:54;14.20;99.90
2657;DHT22;1338;48.176;11.792;2023-06-04T05:03:22;13.80;99.90
2657;DHT22;1338;48.176;11.792;2023-06-04T05:05:51;13.40;99.90
2657;DHT22;1338;48.176;11.792;2023-06-04T05:08:21;14.10;99.90
2657;DHT22;1338;48.176;11.792;2023-06-04T05:10:49;13.90;99.90
2657;DHT22;1338;48.176;11.792;2023-06-04T05:13:18;13.90;99.90
2657;DHT22;1338;48.176;11.792;2023-06-04T05:15:53;14.30;99.90
2657;DHT22;1338;48.176;11.792;2023-06-04T05:18:25;14.20;99.90
2657;DHT22;1338;48.176;11.792;2023-06-04T05:20:59;14.30;99.90
2657;DHT22;1338;48.176;11.792;2023-06-04T05:23:36;14.30;99.90
2657;DHT22;1338;48.176;11.792;2023-06-04T05:26:05;14.00;99.90
2657;DHT22;1338;48.176;11.792;2023-06-04T05:28:34;14.20;99.90
2657;DHT22;1338;48.176;11.792;2023-06-04T05:31:03;14.20;99.90
2657;DHT22;1338;48.176;11.792;2023-06-04T05:33:33;14.50;99.90
2657;DHT22;1338;48.176;11.792;2023-06-04T05:36:06;14.50;99.90
2657;DHT22;1338;48.176;11.792;2023-06-04T05:38:42;14.40;99.90
2657;DHT22;1338;48.176;11.792;2023-06-04T05:43:44;14.40;99.90
2657;DHT22;1338;48.176;11.792;2023-06-04T05:46:15;14.50;99.90
2657;DHT22;1338;48.176;11.792;2023-06-04T05:48:45;14.60;99.90
2657;DHT22;1338;48.176;11.792;2023-06-04T05:51:14;14.50;99.90
2657;DHT22;1338;48.176;11.792;2023-06-04T05:53:44;14.80;99.90
2657;DHT22;1338;48.176;11.792;2023-06-04T05:56:12;14.80;99.90
2657;DHT22;1338;48.176;11.792;2023-06-04T05:58:41;14.90;99.90
2657;DHT22;1338;48.176;11.792;2023-06-04T06:01:11;14.90;98.50
2657;DHT22;1338;48.176;11.792;2023-06-04T06:03:39;15.00;99.90
2657;DHT22;1338;48.176;11.792;2023-06-04T06:06:07;15.10;98.50
2657;DHT22;1338;48.176;11.792;2023-06-04T06:08:37;14.90;96.70
2657;DHT22;1338;48.176;11.792;2023-06-04T06:11:07;14.70;98.10
2657;DHT22;1338;48.176;11.792;2023-06-04T06:13:37;15.20;99.90
2657;DHT22;1338;48.176;11.792;2023-06-04T06:16:07;15.50;98.50
2657;DHT22;1338;48.176;11.792;2023-06-04T06:18:35;15.50;98.20
2657;DHT22;1338;48.176;11.792;2023-06-04T06:21:04;15.60;91.70
2657;DHT22;1338;48.176;11.792;2023-06-04T06:23:32;15.40;87.50
2657;DHT22;1338;48.176;11.792;2023-06-04T06:26:01;15.50;92.20
2657;DHT22;1338;48.176;11.792;2023-06-04T06:28:34;15.60;93.20
2657;DHT22;1338;48.176;11.792;2023-06-04T06:31:04;15.40;85.60
2657;DHT22;1338;48.176;11.792;2023-06-04T06:33:33;15.60;79.80
2657;DHT22;1338;48.176;11.792;2023-06-04T06:36:01;15.70;83.20
2657;DHT22;1338;48.176;11.792;2023-06-04T06:38:29;15.60;73.00
2657;DHT22;1338;48.176;11.792;2023-06-04T06:40:58;15.70;76.20
2657;DHT22;1338;48.176;11.792;2023-06-04T06:43:26;15.80;72.50
2657;DHT22;1338;48.176;11.792;2023-06-04T06:45:56;15.80;77.50
2657;DHT22;1338;48.176;11.792;2023-06-04T06:48:24;15.80;69.80
2657;DHT22;1338;48.176;11.792;2023-06-04T06:50:53;15.90;69.60
2657;DHT22;1338;48.176;11.792;2023-06-04T06:53:21;16.10;63.00
2657;DHT22;1338;48.176;11.792;2023-06-04T06:55:49;16.20;69.60
2657;DHT22;1338;48.176;11.792;2023-06-04T06:58:17;16.10;65.00
2657;DHT22;1338;48.176;11.792;2023-06-04T07:00:45;15.90;64.30
2657;DHT22;1338;48.176;11.792;2023-06-04T07:03:15;16.20;73.00
2657;DHT22;1338;48.176;11.792;2023-06-04T07:05:43;16.50;62.90
2657;DHT22;1338;48.176;11.792;2023-06-04T07:08:11;16.60;59.80
2657;DHT22;1338;48.176;11.792;2023-06-04T07:10:39;16.50;54.30
2657;DHT22;1338;48.176;11.792;2023-06-04T07:13:07;16.60;57.10
2657;DHT22;1338;48.176;11.792;2023-06-04T07:15:36;16.70;55.60
2657;DHT22;1338;48.176;11.792;2023-06-04T07:18:04;16.90;49.70
2657;DHT22;1338;48.176;11.792;2023-06-04T07:20:33;17.10;46.70
2657;DHT22;1338;48.176;11.792;2023-06-04T07:23:01;16.90;44.50
2657;DHT22;1338;48.176;11.792;2023-06-04T07:25:30;16.90;42.00
2657;DHT22;1338;48.176;11.792;2023-06-04T07:27:58;17.10;40.30
2657;DHT22;1338;48.176;11.792;2023-06-04T07:30:26;17.20;39.00
2657;DHT22;1338;48.176;11.792;2023-06-04T07:32:54;17.30;33.00
2657;DHT22;1338;48.176;11.792;2023-06-04T07:35:23;17.30;31.10
2657;DHT22;1338;48.176;11.792;2023-06-04T07:37:53;17.60;28.20
2657;DHT22;1338;48.176;11.792;2023-06-04T07:40:21;17.80;29.20
2657;DHT22;1338;48.176;11.792;2023-06-04T07:42:49;17.90;26.40
2657;DHT22;1338;48.176;11.792;2023-06-04T07:45:18;17.80;21.70
2657;DHT22;1338;48.176;11.792;2023-06-04T07:47:46;17.70;20.90
2657;DHT22;1338;48.176;11.792;2023-06-04T07:50:14;17.50;20.90
2657;DHT22;1338;48.176;11.792;2023-06-04T07:52:42;17.80;24.50
2657;DHT22;1338;48.176;11.792;2023-06-04T07:55:12;18.30;23.50
2657;DHT22;1338;48.176;11.792;2023-06-04T07:57:40;18.30;18.90
2657;DHT22;1338;48.176;11.792;2023-06-04T08:00:10;18.10;18.10
2657;DHT22;1338;48.176;11.792;2023-06-04T08:02:38;18.20;13.90
2657;DHT22;1338;48.176;11.792;2023-06-04T08:05:07;18.30;12.70
2657;DHT22;1338;48.176;11.792;2023-06-04T08:07:36;18.10;11.00
2657;DHT22;1338;48.176;11.792;2023-06-04T08:10:04;18.40;11.80
2657;DHT22;1338;48.176;11.792;2023-06-04T08:12:34;18.60;12.20
2657;DHT22;1338;48.176;11.792;2023-06-04T08:15:03;18.80;8.40
2657;DHT22;1338;48.176;11.792;2023-06-04T08:17:32;18.70;2.20
2657;DHT22;1338;48.176;11.792;2023-06-04T08:20:00;18.90;3.50
2657;DHT22;1338;48.176;11.792;2023-06-04T08:22:33;19.10;1.00
2657;DHT22;1338;48.176;11.792;2023-06-04T08:25:01;19.00;1.00
2657;DHT22;1338;48.176;11.792;2023-06-04T08:27:31;19.20;1.00
2657;DHT22;1338;48.176;11.792;2023-06-04T08:30:01;19.10;1.00
2657;DHT22;1338;48.176;11.792;2023-06-04T08:32:29;19.10;1.00
2657;DHT22;1338;48.176;11.792;2023-06-04T08:34:58;19.20;1.00
2657;DHT22;1338;48.176;11.792;2023-06-04T08:37:26;19.10;1.00
2657;DHT22;1338;48.176;11.792;2023-06-04T08:39:54;19.20;1.00
2657;DHT22;1338;48.176;11.792;2023-06-04T08:42:29;19.60;1.00
2657;DHT22;1338;48.176;11.792;2023-06-04T08:44:58;19.70;1.00
2657;DHT22;1338;48.176;11.792;2023-06-04T08:47:29;19.70;1.00
2657;DHT22;1338;48.176;11.792;2023-06-04T08:49:59;19.90;1.00
2657;DHT22;1338;48.176;11.792;2023-06-04T08:52:28;19.90;1.00
2657;DHT22;1338;48.176;11.792;2023-06-04T08:54:58;19.90;1.00
2657;DHT22;1338;48.176;11.792;2023-06-04T08:57:30;20.00;1.00
2657;DHT22;1338;48.176;11.792;2023-06-04T08:59:58;19.90;1.00
2657;DHT22;1338;48.176;11.792;2023-06-04T09:02:29;19.90;1.00
2657;DHT22;1338;48.176;11.792;2023-06-04T09:04:57;20.20;1.00
2657;DHT22;1338;48.176;11.792;2023-06-04T09:07:28;20.30;1.00
2657;DHT22;1338;48.176;11.792;2023-06-04T09:09:58;20.30;1.00
2657;DHT22;1338;48.176;11.792;2023-06-04T09:12:42;20.60;1.00
2657;DHT22;1338;48.176;11.792;2023-06-04T09:15:11;20.70;1.00
2657;DHT22;1338;48.176;11.792;2023-06-04T09:17:40;21.00;1.00
2657;DHT22;1338;48.176;11.792;2023-06-04T09:20:18;20.70;1.00
2657;DHT22;1338;48.176;11.792;2023-06-04T09:22:47;20.60;1.00
2657;DHT22;1338;48.176;11.792;2023-06-04T09:25:22;20.90;1.00
2657;DHT22;1338;48.176;11.792;2023-06-04T09:27:52;20.80;1.00
2657;DHT22;1338;48.176;11.792;2023-06-04T09:30:22;20.90;1.00
2657;DHT22;1338;48.176;11.792;2023-06-04T09:32:52;20.90;1.00
2657;DHT22;1338;48.176;11.792;2023-06-04T09:35:21;21.10;1.00
2657;DHT22;1338;48.176;11.792;2023-06-04T09:37:54;21.20;1.00
2657;DHT22;1338;48.176;11.792;2023-06-04T09:40:23;21.40;1.00
2657;DHT22;1338;48.176;11.792;2023-06-04T09:42:52;21.50;1.00
2657;DHT22;1338;48.176;11.792;2023-06-04T09:45:29;21.60;1.00
2657;DHT22;1338;48.176;11.792;2023-06-04T09:48:00;21.30;1.00
2657;DHT22;1338;48.176;11.792;2023-06-04T09:50:31;21.50;1.00
2657;DHT22;1338;48.176;11.792;2023-06-04T09:53:00;21.80;1.00
2657;DHT22;1338;48.176;11.792;2023-06-04T09:55:29;22.10;1.00
2657;DHT22;1338;48.176;11.792;2023-06-04T09:57:59;22.50;1.00
2657;DHT22;1338;48.176;11.792;2023-06-04T10:00:28;22.70;1.00
2657;DHT22;1338;48.176;11.792;2023-06-04T10:03:02;22.20;1.00
2657;DHT22;1338;48.176;11.792;2023-06-04T10:05:32;22.70;1.00
2657;DHT22;1338;48.176;11.792;2023-06-04T10:08:03;22.60;1.00
2657;DHT22;1338;48.176;11.792;2023-06-04T10:10:36;22.30;1.00
2657;DHT22;1338;48.176;11.792;2023-06-04T10:13:07;22.50;1.00
2657;DHT22;1338;48.176;11.792;2023-06-04T10:15:37;23.00;1.00
2657;DHT22;1338;48.176;11.792;2023-06-04T10:18:07;22.70;1.00
2657;DHT22;1338;48.176;11.792;2023-06-04T10:20:37;22.80;1.00
2657;DHT22;1338;48.176;11.792;2023-06-04T10:23:06;23.00;1.00
2657;DHT22;1338;48.176;11.792;2023-06-04T10:25:35;22.30;1.00
2657;DHT22;1338;48.176;11.792;2023-06-04T10:28:04;22.80;1.00
2657;DHT22;1338;48.176;11.792;2023-06-04T10:30:32;22.20;1.00
2657;DHT22;1338;48.176;11.792;2023-06-04T10:33:00;22.90;1.00
2657;DHT22;1338;48.176;11.792;2023-06-04T10:35:31;23.00;1.00
2657;DHT22;1338;48.176;11.792;2023-06-04T10:38:09;23.00;1.00
2657;DHT22;1338;48.176;11.792;2023-06-04T10:40:38;23.30;1.00
2657;DHT22;1338;48.176;11.792;2023-06-04T10:43:06;23.30;1.00
2657;DHT22;1338;48.176;11.792;2023-06-04T10:45:35;23.40;1.00
2657;DHT22;1338;48.176;11.792;2023-06-04T10:48:05;23.00;1.00
2657;DHT22;1338;48.176;11.792;2023-06-04T10:50:47;23.00;1.00
2657;DHT22;1338;48.176;11.792;2023-06-04T10:53:16;23.60;1.00
2657;DHT22;1338;48.176;11.792;2023-06-04T10:55:46;23.80;1.00
2657;DHT22;1338;48.176;11.792;2023-06-04T10:58:14;23.90;1.00
2657;DHT22;1338;48.176;11.792;2023-06-04T11:00:46;24.00;1.00
2657;DHT22;1338;48.176;11.792;2023-06-04T11:03:16;23.80;1.00
2657;DHT22;1338;48.176;11.792;2023-06-04T11:05:47;23.90;1.00
2657;DHT22;1338;48.176;11.792;2023-06-04T11:08:26;24.20;1.00
2657;DHT22;1338;48.176;11.792;2023-06-04T11:10:56;23.90;1.00
2657;DHT22;1338;48.176;11.792;2023-06-04T11:13:24;24.20;1.00
2657;DHT22;1338;48.176;11.792;2023-06-04T11:15:53;24.70;1.00
2657;DHT22;1338;48.176;11.792;2023-06-04T11:18:22;24.70;1.00
2657;DHT22;1338;48.176;11.792;2023-06-04T11:21:00;24.40;1.00
2657;DHT22;1338;48.176;11.792;2023-06-04T11:23:29;24.50;1.00
2657;DHT22;1338;48.176;11.792;2023-06-04T11:25:58;24.50;1.00
2657;DHT22;1338;48.176;11.792;2023-06-04T11:28:27;24.70;1.00
2657;DHT22;1338;48.176;11.792;2023-06-04T11:30:58;24.70;1.00
2657;DHT22;1338;48.176;11.792;2023-06-04T11:33:29;25.50;1.00
2657;DHT22;1338;48.176;11.792;2023-06-04T11:35:59;25.60;1.00
2657;DHT22;1338;48.176;11.792;2023-06-04T11:38:27;25.30;1.00
2657;DHT22;1338;48.176;11.792;2023-06-04T11:40:57;24.70;1.00
2657;DHT22;1338;48.176;11.792;2023-06-04T11:43:26;25.50;1.00
2657;DHT22;1338;48.176;11.792;2023-06-04T11:45:54;25.40;1.00
2657;DHT22;1338;48.176;11.792;2023-06-04T11:48:23;25.30;1.00
2657;DHT22;1338;48.176;11.792;2023-06-04T11:50:51;24.80;1.00
2657;DHT22;1338;48.176;11.792;2023-06-04T11:53:21;25.40;1.00
2657;DHT22;1338;48.176;11.792;2023-06-04T11:55:49;25.20;1.00
2657;DHT22;1338;48.176;11.792;2023-06-04T11:58:18;25.10;1.00
2657;DHT22;1338;48.176;11.792;2023-06-04T12:00:46;25.60;1.00
2657;DHT22;1338;48.176;11.792;2023-06-04T12:03:14;24.90;1.00
2657;DHT22;1338;48.176;11.792;2023-06-04T12:05:42;25.60;1.00
2657;DHT22;1338;48.176;11.792;2023-06-04T12:08:10;25.50;1.00
2657;DHT22;1338;48.176;11.792;2023-06-04T12:10:41;25.60;1.00
2657;DHT22;1338;48.176;11.792;2023-06-04T12:13:10;24.70;1.00
2657;DHT22;1338;48.176;11.792;2023-06-04T12:15:38;24.70;1.00
2657;DHT22;1338;48.176;11.792;2023-06-04T12:18:06;24.80;1.00
2657;DHT22;1338;48.176;11.792;2023-06-04T12:20:37;25.50;1.00
2657;DHT22;1338;48.176;11.792;2023-06-04T12:23:06;26.00;1.00
2657;DHT22;1338;48.176;11.792;2023-06-04T12:25:35;26.30;1.00
2657;DHT22;1338;48.176;11.792;2023-06-04T12:28:07;26.40;1.00
2657;DHT22;1338;48.176;11.792;2023-06-04T12:30:44;25.80;1.00
2657;DHT22;1338;48.176;11.792;2023-06-04T12:33:12;26.60;1.00
2657;DHT22;1338;48.176;11.792;2023-06-04T12:35:41;27.40;1.00
2657;DHT22;1338;48.176;11.792;2023-06-04T12:38:09;25.60;1.00
2657;DHT22;1338;48.176;11.792;2023-06-04T12:40:37;26.10;1.00
2657;DHT22;1338;48.176;11.792;2023-06-04T12:43:09;26.80;1.00
2657;DHT22;1338;48.176;11.792;2023-06-04T12:45:37;26.50;1.00
2657;DHT22;1338;48.176;11.792;2023-06-04T12:48:05;26.90;1.00
2657;DHT22;1338;48.176;11.792;2023-06-04T12:50:34;26.90;1.00
2657;DHT22;1338;48.176;11.792;2023-06-04T12:53:02;26.90;1.00
2657;DHT22;1338;48.176;11.792;2023-06-04T12:55:30;27.40;1.00
2657;DHT22;1338;48.176;11.792;2023-06-04T12:57:59;27.90;1.00
2657;DHT22;1338;48.176;11.792;2023-06-04T13:00:29;28.20;1.00
2657;DHT22;1338;48.176;11.792;2023-06-04T13:02:57;26.80;1.00
2657;DHT22;1338;48.176;11.792;2023-06-04T13:05:25;26.30;1.00
2657;DHT22;1338;48.176;11.792;2023-06-04T13:07:53;27.10;1.00
2657;DHT22;1338;48.176;11.792;2023-06-04T13:10:23;27.10;1.00
2657;DHT22;1338;48.176;11.792;2023-06-04T13:12:51;27.30;1.00
2657;DHT22;1338;48.176;11.792;2023-06-04T13:15:19;27.00;1.00
2657;DHT22;1338;48.176;11.792;2023-06-04T13:17:49;27.10;1.00
2657;DHT22;1338;48.176;11.792;2023-06-04T13:20:17;28.20;1.00
2657;DHT22;1338;48.176;11.792;2023-06-04T13:22:45;27.70;1.00
2657;DHT22;1338;48.176;11.792;2023-06-04T13:25:14;27.10;1.00
2657;DHT22;1338;48.176;11.792;2023-06-04T13:27:42;26.60;1.00
2657;DHT22;1338;48.176;11.792;2023-06-04T13:30:12;26.00;1.00
2657;DHT22;1338;48.176;11.792;2023-06-04T13:32:40;26.90;1.00
2657;DHT22;1338;48.176;11.792;2023-06-04T13:35:10;28.50;1.00
2657;DHT22;1338;48.176;11.792;2023-06-04T13:37:38;28.70;1.00
2657;DHT22;1338;48.176;11.792;2023-06-04T13:40:07;28.50;1.00
2657;DHT22;1338;48.176;11.792;2023-06-04T13:42:35;27.70;1.00
2657;DHT22;1338;48.176;11.792;2023-06-04T13:45:04;27.80;1.00
2657;DHT22;1338;48.176;11.792;2023-06-04T13:47:32;27.70;1.00
2657;DHT22;1338;48.176;11.792;2023-06-04T13:50:00;27.80;1.00
2657;DHT22;1338;48.176;11.792;2023-06-04T13:52:30;28.00;1.00
2657;DHT22;1338;48.176;11.792;2023-06-04T13:54:58;27.70;1.00
2657;DHT22;1338;48.176;11.792;2023-06-04T13:57:27;28.00;1.00
2657;DHT22;1338;48.176;11.792;2023-06-04T13:59:55;28.40;1.00
2657;DHT22;1338;48.176;11.792;2023-06-04T14:02:23;27.10;1.00
2657;DHT22;1338;48.176;11.792;2023-06-04T14:04:53;27.20;1.00
2657;DHT22;1338;48.176;11.792;2023-06-04T14:07:22;26.60;1.00
2657;DHT22;1338;48.176;11.792;2023-06-04T14:09:52;26.30;1.00
2657;DHT22;1338;48.176;11.792;2023-06-04T14:12:22;25.60;1.00
2657;DHT22;1338;48.176;11.792;2023-06-04T14:14:50;25.60;1.00
2657;DHT22;1338;48.176;11.792;2023-06-04T14:17:18;25.90;1.00
2657;DHT22;1338;48.176;11.792;2023-06-04T14:19:46;25.90;1.00
2657;DHT22;1338;48.176;11.792;2023-06-04T14:22:14;26.20;1.00
2657;DHT22;1338;48.176;11.792;2023-06-04T14:24:42;26.30;1.00
2657;DHT22;1338;48.176;11.792;2023-06-04T14:27:12;27.10;1.00
2657;DHT22;1338;48.176;11.792;2023-06-04T14:29:40;27.40;1.00
2657;DHT22;1338;48.176;11.792;2023-06-04T14:32:08;27.40;1.00
2657;DHT22;1338;48.176;11.792;2023-06-04T14:34:36;28.00;1.00
2657;DHT22;1338;48.176;11.792;2023-06-04T14:37:04;27.80;1.00
2657;DHT22;1338;48.176;11.792;2023-06-04T14:39:32;27.70;1.00
2657;DHT22;1338;48.176;11.792;2023-06-04T14:42:03;28.90;1.00
2657;DHT22;1338;48.176;11.792;2023-06-04T14:44:33;28.60;1.00
2657;DHT22;1338;48.176;11.792;2023-06-04T14:47:01;26.90;1.00
2657;DHT22;1338;48.176;11.792;2023-06-04T14:49:29;25.90;1.00
2657;DHT22;1338;48.176;11.792;2023-06-04T14:51:57;26.00;1.00
2657;DHT22;1338;48.176;11.792;2023-06-04T14:54:25;26.20;1.00
2657;DHT22;1338;48.176;11.792;2023-06-04T14:56:53;25.90;1.00
2657;DHT22;1338;48.176;11.792;2023-06-04T14:59:21;25.70;1.00
2657;DHT22;1338;48.176;11.792;2023-06-04T15:01:52;25.50;1.00
2657;DHT22;1338;48.176;11.792;2023-06-04T15:04:21;25.00;1.00
2657;DHT22;1338;48.176;11.792;2023-06-04T15:06:49;25.10;1.00
2657;DHT22;1338;48.176;11.792;2023-06-04T15:09:17;25.30;1.00
2657;DHT22;1338;48.176;11.792;2023-06-04T15:11:46;25.20;1.00
2657;DHT22;1338;48.176;11.792;2023-06-04T15:14:14;25.90;1.00
2657;DHT22;1338;48.176;11.792;2023-06-04T15:16:42;25.80;1.00
2657;DHT22;1338;48.176;11.792;2023-06-04T15:19:11;26.30;1.00
2657;DHT22;1338;48.176;11.792;2023-06-04T15:21:39;27.20;1.00
2657;DHT22;1338;48.176;11.792;2023-06-04T15:24:09;26.70;1.00
2657;DHT22;1338;48.176;11.792;2023-06-04T15:26:37;26.30;1.00
2657;DHT22;1338;48.176;11.792;2023-06-04T15:29:05;26.00;1.00
2657;DHT22;1338;48.176;11.792;2023-06-04T15:31:34;26.20;1.00
2657;DHT22;1338;48.176;11.792;2023-06-04T15:34:02;26.20;1.00
2657;DHT22;1338;48.176;11.792;2023-06-04T15:36:32;26.20;1.00
2657;DHT22;1338;48.176;11.792;2023-06-04T15:39:01;26.00;1.00
2657;DHT22;1338;48.176;11.792;2023-06-04T15:41:29;26.00;1.00
2657;DHT22;1338;48.176;11.792;2023-06-04T15:43:57;26.40;1.00
2657;DHT22;1338;48.176;11.792;2023-06-04T15:46:28;27.10;1.00
2657;DHT22;1338;48.176;11.792;2023-06-04T15:48:57;27.90;1.00
2657;DHT22;1338;48.176;11.792;2023-06-04T15:51:25;27.20;1.00
2657;DHT22;1338;48.176;11.792;2023-06-04T15:53:54;27.10;1.00
2657;DHT22;1338;48.176;11.792;2023-06-04T15:56:25;26.20;1.00
2657;DHT22;1338;48.176;11.792;2023-06-04T15:58:53;25.90;1.00
2657;DHT22;1338;48.176;11.792;2023-06-04T16:03:50;25.30;1.00
2657;DHT22;1338;48.176;11.792;2023-06-04T16:06:19;25.00;1.00
2657;DHT22;1338;48.176;11.792;2023-06-04T16:08:47;25.40;1.00
2657;DHT22;1338;48.176;11.792;2023-06-04T16:11:17;25.10;1.00
2657;DHT22;1338;48.176;11.792;2023-06-04T16:13:46;25.00;1.00